Barbarossa — ZDFA4 — position and weather

sailwx.info

Track history (hours):
 
Tides and Currents Weather Stations Pressure Air Temp Water Temp Dewpoint Dewpoint Depression Visibility Wind Speed Wind Dir Waves Ship Positions

Barbarossa

Last reported at 2016-Jul-23 08:32 UTC. Time now 2016-Jul-23 09:16 UTC.
Position N 50°43' W 001°59'.

Length 83 m; draft 4.2 m.

Type: Cargo ship. MMSI: 236029000.

Date/timePositionNaut miles runAvg speedWind from/ knotsBaromVisibWave heightAir tempDewpointWater temp
2016-Jul-23 08:32N 50°43' W 001°59'0 0.0
2016-Jul-23 07:31N 50°43' W 001°59'0 0.0
2016-Jul-23 06:28N 50°43' W 001°59'0 0.0
2016-Jul-23 04:33N 50°43' W 001°59'0 0.0
2016-Jul-23 03:30N 50°43' W 001°59'0 0.0
2016-Jul-23 02:29N 50°43' W 001°59'0 0.0
2016-Jul-23 01:32N 50°43' W 001°59'0 0.0
2016-Jul-23 00:31N 50°43' W 001°59'0 0.0
2016-Jul-22 23:33N 50°43' W 001°59'0 0.0
2016-Jul-22 22:27N 50°43' W 001°59'0 0.0
2016-Jul-22 21:30N 50°43' W 001°59'0 0.0
2016-Jul-22 20:33N 50°43' W 001°59'0 0.0
2016-Jul-22 19:05N 50°43' W 001°59'0 0.0
2016-Jul-22 18:20N 50°43' W 001°59'0 0.0
2016-Jul-22 17:31N 50°43' W 001°59'0 0.0
2016-Jul-22 16:10N 50°43' W 001°59'0 0.0
2016-Jul-22 15:34N 50°43' W 001°59'0 0.0
2016-Jul-22 14:33N 50°43' W 001°59'0 0.0
2016-Jul-22 13:30N 50°43' W 001°59'0 0.0
2016-Jul-22 12:32N 50°43' W 001°59'0 0.0
2016-Jul-22 11:32N 50°43' W 001°59'0 0.0
2016-Jul-22 10:31N 50°43' W 001°59'0 0.0
2016-Jul-22 09:31N 50°43' W 001°59'0 0.0
2016-Jul-22 08:34N 50°43' W 001°59'0 0.0
2016-Jul-22 07:33N 50°43' W 001°59'0 0.0
2016-Jul-22 04:32N 50°43' W 001°59'0 0.0
2016-Jul-22 03:31N 50°43' W 001°59'0 0.0
2016-Jul-22 02:31N 50°43' W 001°59'0 0.0
2016-Jul-22 01:33N 50°43' W 001°59'0 0.0
2016-Jul-22 00:33N 50°43' W 001°59'0 0.0
2016-Jul-21 23:33N 50°43' W 001°59'0 0.0
2016-Jul-21 22:32N 50°43' W 001°59'0 0.0
2016-Jul-21 21:32N 50°43' W 001°59'0 0.0
2016-Jul-21 20:31N 50°43' W 001°59'0 0.0
2016-Jul-21 19:31N 50°43' W 001°59'0 0.0
2016-Jul-21 18:30N 50°43' W 001°59'0 0.0
2016-Jul-21 17:30N 50°43' W 001°59'0 0.0
2016-Jul-21 16:30N 50°43' W 001°59'0 0.0
2016-Jul-21 15:32N 50°43' W 001°59'0 0.0
2016-Jul-21 14:29N 50°43' W 001°59'0 0.0
2016-Jul-21 13:31N 50°43' W 001°59'0 0.0
2016-Jul-21 12:28N 50°43' W 001°59'0 0.0
2016-Jul-21 11:33N 50°43' W 001°59'0 0.0
2016-Jul-21 10:33N 50°43' W 001°59'0 0.0
2016-Jul-21 09:30N 50°43' W 001°59'0 0.0
2016-Jul-21 08:32N 50°43' W 001°59'0 0.0
2016-Jul-21 07:32N 50°43' W 001°59'0 0.0
2016-Jul-21 06:31N 50°43' W 001°59'0 0.0
2016-Jul-21 05:31N 50°43' W 001°59'1 0.8
2016-Jul-21 04:33N 50°42' W 001°58'8 8.4
2016-Jul-21 03:33N 50°37' W 001°48'4910.9
2016-Jul-20 23:05N 50°31' W 000°32'5 8.7
2016-Jul-20 22:33N 50°31' W 000°24'8 8.1
2016-Jul-20 21:33N 50°32' W 000°12'7 7.0
2016-Jul-20 20:33N 50°32' W 000°01'7 7.2
2016-Jul-20 19:33N 50°34' E 000°10'9 8.6
2016-Jul-20 18:33N 50°37' E 000°23'45 9.0
2016-Jul-20 13:32N 51°02' E 001°23'6 6.5
2016-Jul-20 12:34N 51°06' E 001°30'6 6.3
2016-Jul-20 11:34N 51°10' E 001°38'7 7.4
2016-Jul-20 10:34N 51°16' E 001°46'1010.0
2016-Jul-20 09:34N 51°25' E 001°53'1111.4
2016-Jul-20 08:33N 51°34' E 002°04'1211.8
2016-Jul-20 07:33N 51°42' E 002°17'1111.2
2016-Jul-20 06:34N 51°51' E 002°29'1010.3
2016-Jul-20 05:33N 51°59' E 002°40'9 9.4
2016-Jul-20 04:34N 52°06' E 002°50'10 8.8
2016-Jul-20 03:27N 52°13' E 003°00'26 8.6
2016-Jul-20 00:23N 52°34' E 003°25'810.1
2016-Jul-19 23:34N 52°41' E 003°33'1110.7
2016-Jul-19 22:34N 52°49' E 003°45'1110.9
2016-Jul-19 21:33N 52°57' E 003°57'1110.9
2016-Jul-19 20:33N 53°04' E 004°11'1010.0
2016-Jul-19 19:33N 53°11' E 004°23'10 9.2
2016-Jul-19 18:27N 53°20' E 004°31'27 9.2
2016-Jul-19 15:33N 53°36' E 005°07'1111.0
2016-Jul-19 14:33N 53°39' E 005°25'1211.6
2016-Jul-19 13:33N 53°43' E 005°43'1211.7
2016-Jul-19 12:33N 53°47' E 006°02'1111.0
2016-Jul-19 11:33N 53°51' E 006°19'1010.4
2016-Jul-19 10:34N 53°53' E 006°36'10 9.7
2016-Jul-19 09:34N 53°55' E 006°52'9 8.9
2016-Jul-19 08:33N 53°57' E 007°07'9 8.9
2016-Jul-19 07:33N 53°59' E 007°22'30 9.9
2016-Jul-19 04:33N 54°01' E 008°12'1212.3
2016-Jul-19 03:33N 53°58' E 008°33'1212.3
2016-Jul-19 02:34N 53°51' E 008°49'1110.7
2016-Jul-19 01:33N 53°53' E 009°06'2 2.5
2016-Jul-19 00:33N 53°54' E 009°10'8 8.1
2016-Jul-18 23:34N 54°01' E 009°18'30 5.9
2016-Jul-18 18:33N 54°21' E 009°56'5 5.1
2016-Jul-18 17:33N 54°22' E 010°04'3 3.2
2016-Jul-18 16:33N 54°22' E 010°10'9 9.3
2016-Jul-18 15:33N 54°30' E 010°18'1010.3
2016-Jul-18 14:33N 54°34' E 010°34'10 9.9
2016-Jul-18 13:33N 54°35' E 010°51'10 9.7
2016-Jul-18 12:33N 54°36' E 011°08'1010.3
2016-Jul-18 11:33N 54°32' E 011°24'1010.1
2016-Jul-18 10:33N 54°28' E 011°40'1010.3
2016-Jul-18 09:33N 54°27' E 011°57'9 9.3
2016-Jul-18 08:33N 54°31' E 012°12'1010.4
2016-Jul-18 07:33N 54°39' E 012°22'5510.4
2016-Jul-18 02:13N 55°02' E 013°50'810.6
2016-Jul-18 01:25N 55°05' E 014°03'1011.2
2016-Jul-18 00:33N 55°12' E 014°14'1110.7
2016-Jul-17 23:33N 55°21' E 014°26'1110.6
2016-Jul-17 22:33N 55°28' E 014°39'1110.5
2016-Jul-17 21:33N 55°34' E 014°55'1010.5
2016-Jul-17 20:33N 55°39' E 015°11'  
Track history (hours):
 
Tides and Currents Weather Stations Pressure Air Temp Water Temp Dewpoint Dewpoint Depression Visibility Wind Speed Wind Dir Waves Ship Positions

Barbarossa

Last reported at 2016-Jul-23 08:32 UTC. Time now 2016-Jul-23 09:16 UTC.
Position N 50°43' W 001°59'.

Length 83 m; draft 4.2 m.

Type: Cargo ship. MMSI: 236029000.

Date/timePositionNaut miles runAvg speedWind from/ knotsBaromVisibWave heightAir tempDewpointWater temp
2016-Jul-23 08:32N 50°43' W 001°59'0 0.0
2016-Jul-23 07:31N 50°43' W 001°59'0 0.0
2016-Jul-23 06:28N 50°43' W 001°59'0 0.0
2016-Jul-23 04:33N 50°43' W 001°59'0 0.0
2016-Jul-23 03:30N 50°43' W 001°59'0 0.0
2016-Jul-23 02:29N 50°43' W 001°59'0 0.0
2016-Jul-23 01:32N 50°43' W 001°59'0 0.0
2016-Jul-23 00:31N 50°43' W 001°59'0 0.0
2016-Jul-22 23:33N 50°43' W 001°59'0 0.0
2016-Jul-22 22:27N 50°43' W 001°59'0 0.0
2016-Jul-22 21:30N 50°43' W 001°59'0 0.0
2016-Jul-22 20:33N 50°43' W 001°59'0 0.0
2016-Jul-22 19:05N 50°43' W 001°59'0 0.0
2016-Jul-22 18:20N 50°43' W 001°59'0 0.0
2016-Jul-22 17:31N 50°43' W 001°59'0 0.0
2016-Jul-22 16:10N 50°43' W 001°59'0 0.0
2016-Jul-22 15:34N 50°43' W 001°59'0 0.0
2016-Jul-22 14:33N 50°43' W 001°59'0 0.0
2016-Jul-22 13:30N 50°43' W 001°59'0 0.0
2016-Jul-22 12:32N 50°43' W 001°59'0 0.0
2016-Jul-22 11:32N 50°43' W 001°59'0 0.0
2016-Jul-22 10:31N 50°43' W 001°59'0 0.0
2016-Jul-22 09:31N 50°43' W 001°59'0 0.0
2016-Jul-22 08:34N 50°43' W 001°59'0 0.0
2016-Jul-22 07:33N 50°43' W 001°59'0 0.0
2016-Jul-22 04:32N 50°43' W 001°59'0 0.0
2016-Jul-22 03:31N 50°43' W 001°59'0 0.0
2016-Jul-22 02:31N 50°43' W 001°59'0 0.0
2016-Jul-22 01:33N 50°43' W 001°59'0 0.0
2016-Jul-22 00:33N 50°43' W 001°59'0 0.0
2016-Jul-21 23:33N 50°43' W 001°59'0 0.0
2016-Jul-21 22:32N 50°43' W 001°59'0 0.0
2016-Jul-21 21:32N 50°43' W 001°59'0 0.0
2016-Jul-21 20:31N 50°43' W 001°59'0 0.0
2016-Jul-21 19:31N 50°43' W 001°59'0 0.0
2016-Jul-21 18:30N 50°43' W 001°59'0 0.0
2016-Jul-21 17:30N 50°43' W 001°59'0 0.0
2016-Jul-21 16:30N 50°43' W 001°59'0 0.0
2016-Jul-21 15:32N 50°43' W 001°59'0 0.0
2016-Jul-21 14:29N 50°43' W 001°59'0 0.0
2016-Jul-21 13:31N 50°43' W 001°59'0 0.0
2016-Jul-21 12:28N 50°43' W 001°59'0 0.0
2016-Jul-21 11:33N 50°43' W 001°59'0 0.0
2016-Jul-21 10:33N 50°43' W 001°59'0 0.0
2016-Jul-21 09:30N 50°43' W 001°59'0 0.0
2016-Jul-21 08:32N 50°43' W 001°59'0 0.0
2016-Jul-21 07:32N 50°43' W 001°59'0 0.0
2016-Jul-21 06:31N 50°43' W 001°59'0 0.0
2016-Jul-21 05:31N 50°43' W 001°59'1 0.8
2016-Jul-21 04:33N 50°42' W 001°58'8 8.4
2016-Jul-21 03:33N 50°37' W 001°48'4910.9
2016-Jul-20 23:05N 50°31' W 000°32'5 8.7
2016-Jul-20 22:33N 50°31' W 000°24'8 8.1
2016-Jul-20 21:33N 50°32' W 000°12'7 7.0
2016-Jul-20 20:33N 50°32' W 000°01'7 7.2
2016-Jul-20 19:33N 50°34' E 000°10'9 8.6
2016-Jul-20 18:33N 50°37' E 000°23'45 9.0
2016-Jul-20 13:32N 51°02' E 001°23'6 6.5
2016-Jul-20 12:34N 51°06' E 001°30'6 6.3
2016-Jul-20 11:34N 51°10' E 001°38'7 7.4
2016-Jul-20 10:34N 51°16' E 001°46'1010.0
2016-Jul-20 09:34N 51°25' E 001°53'1111.4
2016-Jul-20 08:33N 51°34' E 002°04'1211.8
2016-Jul-20 07:33N 51°42' E 002°17'1111.2
2016-Jul-20 06:34N 51°51' E 002°29'1010.3
2016-Jul-20 05:33N 51°59' E 002°40'9 9.4
2016-Jul-20 04:34N 52°06' E 002°50'10 8.8
2016-Jul-20 03:27N 52°13' E 003°00'26 8.6
2016-Jul-20 00:23N 52°34' E 003°25'810.1
2016-Jul-19 23:34N 52°41' E 003°33'1110.7
2016-Jul-19 22:34N 52°49' E 003°45'1110.9
2016-Jul-19 21:33N 52°57' E 003°57'1110.9
2016-Jul-19 20:33N 53°04' E 004°11'1010.0
2016-Jul-19 19:33N 53°11' E 004°23'10 9.2
2016-Jul-19 18:27N 53°20' E 004°31'27 9.2
2016-Jul-19 15:33N 53°36' E 005°07'1111.0
2016-Jul-19 14:33N 53°39' E 005°25'1211.6
2016-Jul-19 13:33N 53°43' E 005°43'1211.7
2016-Jul-19 12:33N 53°47' E 006°02'1111.0
2016-Jul-19 11:33N 53°51' E 006°19'1010.4
2016-Jul-19 10:34N 53°53' E 006°36'10 9.7
2016-Jul-19 09:34N 53°55' E 006°52'9 8.9
2016-Jul-19 08:33N 53°57' E 007°07'9 8.9
2016-Jul-19 07:33N 53°59' E 007°22'30 9.9
2016-Jul-19 04:33N 54°01' E 008°12'1212.3
2016-Jul-19 03:33N 53°58' E 008°33'1212.3
2016-Jul-19 02:34N 53°51' E 008°49'1110.7
2016-Jul-19 01:33N 53°53' E 009°06'2 2.5
2016-Jul-19 00:33N 53°54' E 009°10'8 8.1
2016-Jul-18 23:34N 54°01' E 009°18'30 5.9
2016-Jul-18 18:33N 54°21' E 009°56'5 5.1
2016-Jul-18 17:33N 54°22' E 010°04'3 3.2
2016-Jul-18 16:33N 54°22' E 010°10'9 9.3
2016-Jul-18 15:33N 54°30' E 010°18'1010.3
2016-Jul-18 14:33N 54°34' E 010°34'10 9.9
2016-Jul-18 13:33N 54°35' E 010°51'10 9.7
2016-Jul-18 12:33N 54°36' E 011°08'1010.3
2016-Jul-18 11:33N 54°32' E 011°24'1010.1
2016-Jul-18 10:33N 54°28' E 011°40'1010.3
2016-Jul-18 09:33N 54°27' E 011°57'9 9.3
2016-Jul-18 08:33N 54°31' E 012°12'1010.4
2016-Jul-18 07:33N 54°39' E 012°22'5510.4
2016-Jul-18 02:13N 55°02' E 013°50'810.6
2016-Jul-18 01:25N 55°05' E 014°03'1011.2
2016-Jul-18 00:33N 55°12' E 014°14'1110.7
2016-Jul-17 23:33N 55°21' E 014°26'1110.6
2016-Jul-17 22:33N 55°28' E 014°39'1110.5
2016-Jul-17 21:33N 55°34' E 014°55'1010.5
2016-Jul-17 20:33N 55°39' E 015°11'  

Dump ship's entire track history